Etusivu
METAR-TAF:

METAR-TAF

Lentoasemat :

Recife, Pernambuco, Brasilia

Leveyspiiri: 08-08S, Pituuspiiri: 034-55W, korkeus merenpinnasta: 19 m

Tämänhetkinen sää

Tämä raportti tehtiin 25 minuuttia sitten, kello 17.00 UTC
Tuuli 9 kn idästä/kaakosta
Lämpötila 27°C
Kosteus 70%
Ilmanpaine 1011 hPa
Näkyvyys 10 km tai enemmän
Muutamia pilviä 2200 ft:n korkeudessa

METAR: SBRF 171700Z 11009KT 9999 FEW022 27/21 Q1011

Aika: 14:25 (17:25 UTC)

Sääennuste

Tämä raportti tehtiin 7 tuntia ja 25 minuuttia sitten, kello 10.00 UTC
Ennuste voimassa 17. päivästä klo 12 UTC - 18. päivään klo 12 UTC
Tuuli 9 kn kaakosta
Näkyvyys: 9000 m
Hajanaisia pilviä 2300 ft:n korkeudessa

TAF: SBRF 171000Z 1712/1812 13009KT 9000 SCT023 TX29/1715Z TN25/1807Z RMK PEA

Säähavainnot ja -ennusteet yli 4000 lentoasemalta (METAR- ja TAF-raportit).

Käytössä olevat sääasemat on merkitty karttaan keltaisilla ja punaisilla pisteillä.

Aseta hiiri pisteen päälle nähdäksesi sääaseman nimen.

Klikkaa sitten nähdäksesi säähavainnot ja -ennusteet.

Kartan vaihtaminen: klikkaa mustalla rastilla varustettuja vihreitä pisteitä, niin voit zoomata sisään; viivalla varustettua vihreää pistettä, niin voit zoomata ulos tai vihreitä nuolia, niin pääset viereisille kartoille.


METAR-TAF: